KJNX

Johnston Regional Airport

Smithfield, North Carolina, USA
METAR KJNX 230850Z AUTO 00000KT 7SM SCT095 20/20 A3004 RMK AO2
Observed Flight Rules
May-23 @ 08:50 UTC (18 minutes ago) Visual Flight Rules
Visibility Clouds
7 miles
  • Scattered at 9,500' AGL
Temperatures Readings
Current 20°C / 68°F
Dewpoint 20°C / 68°F
Humidity 100%
Altimeter 30.04" Hg
Pressure 1017 hPa
Elevation 50
METAR KJNX 230850Z AUTO 00000KT 7SM SCT095 20/20 A3004 RMK AO2
Observed Flight Rules
May-23 @ 08:50 UTC
(18 minutes ago)
VFR
Clouds
  • Scattered at 9,500' AGL
Temperature Dewpoint
20°C / 68°F 20°C / 68°F
Humidity Altimeter Pressure
100% 30.04" Hg 1017 hPa